sensor_id;sensor_type;location;lat;lon;timestamp;P1;durP1;ratioP1;P2;durP2;ratioP2
46042;SDS011;32533;-33.854;18.542;2022-09-27T00:00:05;4.00;;;2.03;;
46042;SDS011;32533;-33.854;18.542;2022-09-27T00:02:32;6.32;;;2.30;;
46042;SDS011;32533;-33.854;18.542;2022-09-27T00:04:58;4.63;;;2.63;;
46042;SDS011;32533;-33.854;18.542;2022-09-27T00:07:25;4.78;;;3.00;;
46042;SDS011;32533;-33.854;18.542;2022-09-27T00:09:51;5.65;;;2.42;;
46042;SDS011;32533;-33.854;18.542;2022-09-27T00:12:18;5.88;;;3.08;;
46042;SDS011;32533;-33.854;18.542;2022-09-27T00:14:44;12.73;;;4.47;;
46042;SDS011;32533;-33.854;18.542;2022-09-27T00:17:11;5.63;;;2.65;;
46042;SDS011;32533;-33.854;18.542;2022-09-27T00:19:37;5.78;;;2.55;;
46042;SDS011;32533;-33.854;18.542;2022-09-27T00:22:04;4.40;;;2.28;;
46042;SDS011;32533;-33.854;18.542;2022-09-27T00:24:30;8.07;;;3.85;;
46042;SDS011;32533;-33.854;18.542;2022-09-27T00:26:57;8.60;;;2.95;;
46042;SDS011;32533;-33.854;18.542;2022-09-27T00:29:23;7.18;;;4.13;;
46042;SDS011;32533;-33.854;18.542;2022-09-27T00:31:50;5.03;;;2.92;;
46042;SDS011;32533;-33.854;18.542;2022-09-27T00:34:18;4.43;;;2.75;;
46042;SDS011;32533;-33.854;18.542;2022-09-27T00:36:49;17.52;;;2.78;;
46042;SDS011;32533;-33.854;18.542;2022-09-27T00:39:17;4.43;;;2.60;;
46042;SDS011;32533;-33.854;18.542;2022-09-27T00:41:43;3.28;;;2.38;;
46042;SDS011;32533;-33.854;18.542;2022-09-27T00:47:26;6.47;;;2.35;;
46042;SDS011;32533;-33.854;18.542;2022-09-27T00:52:18;3.90;;;2.10;;
46042;SDS011;32533;-33.854;18.542;2022-09-27T00:54:57;2.75;;;1.85;;
46042;SDS011;32533;-33.854;18.542;2022-09-27T00:57:40;5.28;;;2.40;;
46042;SDS011;32533;-33.854;18.542;2022-09-27T01:00:09;3.80;;;1.60;;
46042;SDS011;32533;-33.854;18.542;2022-09-27T01:02:37;7.18;;;2.10;;
46042;SDS011;32533;-33.854;18.542;2022-09-27T01:05:07;3.42;;;1.13;;
46042;SDS011;32533;-33.854;18.542;2022-09-27T01:07:36;4.65;;;1.55;;
46042;SDS011;32533;-33.854;18.542;2022-09-27T01:10:03;2.13;;;1.10;;
46042;SDS011;32533;-33.854;18.542;2022-09-27T01:12:42;3.05;;;1.40;;
46042;SDS011;32533;-33.854;18.542;2022-09-27T01:24:17;5.25;;;1.73;;
46042;SDS011;32533;-33.854;18.542;2022-09-27T01:32:50;1.17;;;1.02;;
46042;SDS011;32533;-33.854;18.542;2022-09-27T01:38:33;3.60;;;1.77;;
46042;SDS011;32533;-33.854;18.542;2022-09-27T01:43:47;2.08;;;1.08;;
46042;SDS011;32533;-33.854;18.542;2022-09-27T01:46:37;2.50;;;1.10;;
46042;SDS011;32533;-33.854;18.542;2022-09-27T01:49:09;1.30;;;0.80;;
46042;SDS011;32533;-33.854;18.542;2022-09-27T01:51:46;1.02;;;0.90;;
46042;SDS011;32533;-33.854;18.542;2022-09-27T01:54:18;1.75;;;0.90;;
46042;SDS011;32533;-33.854;18.542;2022-09-27T01:56:50;1.50;;;0.90;;
46042;SDS011;32533;-33.854;18.542;2022-09-27T01:59:24;1.48;;;0.95;;
46042;SDS011;32533;-33.854;18.542;2022-09-27T02:01:59;2.42;;;1.10;;
46042;SDS011;32533;-33.854;18.542;2022-09-27T02:04:29;1.23;;;0.90;;
46042;SDS011;32533;-33.854;18.542;2022-09-27T02:07:01;1.17;;;0.95;;
46042;SDS011;32533;-33.854;18.542;2022-09-27T02:09:38;2.70;;;1.10;;
46042;SDS011;32533;-33.854;18.542;2022-09-27T02:12:20;3.20;;;1.00;;
46042;SDS011;32533;-33.854;18.542;2022-09-27T02:15:00;0.82;;;0.77;;
46042;SDS011;32533;-33.854;18.542;2022-09-27T02:20:38;3.60;;;1.27;;
46042;SDS011;32533;-33.854;18.542;2022-09-27T02:25:50;2.15;;;0.98;;
46042;SDS011;32533;-33.854;18.542;2022-09-27T02:31:12;1.98;;;0.63;;
46042;SDS011;32533;-33.854;18.542;2022-09-27T02:34:02;2.30;;;1.15;;
46042;SDS011;32533;-33.854;18.542;2022-09-27T02:36:41;1.45;;;1.15;;
46042;SDS011;32533;-33.854;18.542;2022-09-27T02:39:08;9.20;;;1.75;;
46042;SDS011;32533;-33.854;18.542;2022-09-27T02:41:36;2.30;;;0.93;;
46042;SDS011;32533;-33.854;18.542;2022-09-27T02:44:04;2.15;;;1.25;;
46042;SDS011;32533;-33.854;18.542;2022-09-27T02:46:38;8.57;;;1.58;;
46042;SDS011;32533;-33.854;18.542;2022-09-27T02:54:35;4.75;;;1.30;;
46042;SDS011;32533;-33.854;18.542;2022-09-27T02:57:27;8.52;;;1.13;;
46042;SDS011;32533;-33.854;18.542;2022-09-27T03:00:13;1.58;;;1.08;;
46042;SDS011;32533;-33.854;18.542;2022-09-27T03:05:16;4.20;;;1.15;;
46042;SDS011;32533;-33.854;18.542;2022-09-27T03:08:05;3.75;;;1.60;;
46042;SDS011;32533;-33.854;18.542;2022-09-27T03:10:32;4.95;;;1.70;;
46042;SDS011;32533;-33.854;18.542;2022-09-27T03:12:59;1.80;;;1.23;;
46042;SDS011;32533;-33.854;18.542;2022-09-27T03:15:25;5.43;;;1.30;;
46042;SDS011;32533;-33.854;18.542;2022-09-27T03:17:52;6.43;;;1.40;;
46042;SDS011;32533;-33.854;18.542;2022-09-27T03:20:18;9.95;;;3.45;;
46042;SDS011;32533;-33.854;18.542;2022-09-27T03:22:45;15.48;;;9.32;;
46042;SDS011;32533;-33.854;18.542;2022-09-27T03:25:12;30.98;;;15.32;;
46042;SDS011;32533;-33.854;18.542;2022-09-27T03:27:38;16.55;;;10.07;;
46042;SDS011;32533;-33.854;18.542;2022-09-27T03:30:05;7.15;;;5.28;;
46042;SDS011;32533;-33.854;18.542;2022-09-27T03:32:32;4.97;;;3.03;;
46042;SDS011;32533;-33.854;18.542;2022-09-27T03:34:58;5.82;;;1.60;;
46042;SDS011;32533;-33.854;18.542;2022-09-27T03:37:25;17.00;;;3.38;;
46042;SDS011;32533;-33.854;18.542;2022-09-27T03:39:53;8.50;;;1.75;;
46042;SDS011;32533;-33.854;18.542;2022-09-27T03:42:20;2.83;;;1.25;;
46042;SDS011;32533;-33.854;18.542;2022-09-27T03:44:46;1.75;;;1.23;;
46042;SDS011;32533;-33.854;18.542;2022-09-27T03:47:15;3.00;;;1.17;;
46042;SDS011;32533;-33.854;18.542;2022-09-27T03:49:42;6.82;;;2.03;;
46042;SDS011;32533;-33.854;18.542;2022-09-27T03:52:08;1.15;;;1.05;;
46042;SDS011;32533;-33.854;18.542;2022-09-27T03:54:35;6.32;;;1.83;;
46042;SDS011;32533;-33.854;18.542;2022-09-27T03:57:01;6.22;;;2.50;;
46042;SDS011;32533;-33.854;18.542;2022-09-27T03:59:29;5.05;;;1.95;;
46042;SDS011;32533;-33.854;18.542;2022-09-27T04:01:55;9.57;;;4.25;;
46042;SDS011;32533;-33.854;18.542;2022-09-27T04:04:22;5.20;;;1.83;;
46042;SDS011;32533;-33.854;18.542;2022-09-27T04:06:49;6.07;;;3.15;;
46042;SDS011;32533;-33.854;18.542;2022-09-27T04:09:15;5.88;;;2.30;;
46042;SDS011;32533;-33.854;18.542;2022-09-27T04:11:42;2.70;;;1.30;;
46042;SDS011;32533;-33.854;18.542;2022-09-27T04:14:08;8.10;;;1.40;;
46042;SDS011;32533;-33.854;18.542;2022-09-27T04:16:37;3.08;;;1.48;;
46042;SDS011;32533;-33.854;18.542;2022-09-27T04:19:07;3.00;;;1.10;;
46042;SDS011;32533;-33.854;18.542;2022-09-27T04:21:33;1.92;;;0.95;;
46042;SDS011;32533;-33.854;18.542;2022-09-27T04:24:00;18.15;;;14.15;;
46042;SDS011;32533;-33.854;18.542;2022-09-27T04:26:27;34.50;;;25.48;;
46042;SDS011;32533;-33.854;18.542;2022-09-27T04:28:53;20.08;;;16.45;;
46042;SDS011;32533;-33.854;18.542;2022-09-27T04:31:21;10.93;;;7.97;;
46042;SDS011;32533;-33.854;18.542;2022-09-27T04:33:47;6.75;;;4.38;;
46042;SDS011;32533;-33.854;18.542;2022-09-27T04:36:14;5.40;;;2.10;;
46042;SDS011;32533;-33.854;18.542;2022-09-27T04:38:57;4.97;;;1.73;;
46042;SDS011;32533;-33.854;18.542;2022-09-27T04:41:28;1.25;;;0.73;;
46042;SDS011;32533;-33.854;18.542;2022-09-27T04:43:55;3.75;;;1.08;;
46042;SDS011;32533;-33.854;18.542;2022-09-27T04:46:23;3.55;;;0.98;;
46042;SDS011;32533;-33.854;18.542;2022-09-27T04:48:49;3.83;;;1.30;;
46042;SDS011;32533;-33.854;18.542;2022-09-27T04:51:56;2.83;;;1.52;;
46042;SDS011;32533;-33.854;18.542;2022-09-27T04:55:02;3.90;;;1.73;;
46042;SDS011;32533;-33.854;18.542;2022-09-27T04:58:08;2.50;;;2.10;;
46042;SDS011;32533;-33.854;18.542;2022-09-27T05:01:14;8.18;;;2.58;;
46042;SDS011;32533;-33.854;18.542;2022-09-27T05:04:23;14.10;;;2.15;;
46042;SDS011;32533;-33.854;18.542;2022-09-27T05:06:50;6.38;;;2.65;;
46042;SDS011;32533;-33.854;18.542;2022-09-27T05:09:16;5.28;;;3.03;;
46042;SDS011;32533;-33.854;18.542;2022-09-27T05:11:43;13.10;;;2.90;;
46042;SDS011;32533;-33.854;18.542;2022-09-27T05:14:10;10.88;;;3.00;;
46042;SDS011;32533;-33.854;18.542;2022-09-27T05:16:38;9.70;;;2.83;;
46042;SDS011;32533;-33.854;18.542;2022-09-27T05:19:04;20.75;;;3.20;;
46042;SDS011;32533;-33.854;18.542;2022-09-27T05:21:31;9.45;;;2.90;;
46042;SDS011;32533;-33.854;18.542;2022-09-27T05:23:57;7.60;;;2.97;;
46042;SDS011;32533;-33.854;18.542;2022-09-27T05:26:25;10.30;;;3.88;;
46042;SDS011;32533;-33.854;18.542;2022-09-27T05:28:51;10.40;;;4.43;;
46042;SDS011;32533;-33.854;18.542;2022-09-27T05:31:18;6.95;;;3.63;;
46042;SDS011;32533;-33.854;18.542;2022-09-27T05:33:44;5.85;;;3.22;;
46042;SDS011;32533;-33.854;18.542;2022-09-27T05:36:11;9.30;;;2.72;;
46042;SDS011;32533;-33.854;18.542;2022-09-27T05:38:37;7.07;;;2.67;;
46042;SDS011;32533;-33.854;18.542;2022-09-27T05:41:06;3.67;;;2.70;;
46042;SDS011;32533;-33.854;18.542;2022-09-27T05:43:33;4.28;;;2.88;;
46042;SDS011;32533;-33.854;18.542;2022-09-27T05:46:00;6.28;;;4.10;;
46042;SDS011;32533;-33.854;18.542;2022-09-27T05:48:27;7.43;;;5.68;;
46042;SDS011;32533;-33.854;18.542;2022-09-27T05:50:54;8.15;;;5.32;;
46042;SDS011;32533;-33.854;18.542;2022-09-27T05:53:21;11.05;;;5.18;;
46042;SDS011;32533;-33.854;18.542;2022-09-27T05:55:48;7.65;;;5.00;;
46042;SDS011;32533;-33.854;18.542;2022-09-27T05:58:14;7.85;;;6.03;;
46042;SDS011;32533;-33.854;18.542;2022-09-27T06:00:42;7.55;;;4.88;;
46042;SDS011;32533;-33.854;18.542;2022-09-27T06:03:10;9.77;;;4.80;;
46042;SDS011;32533;-33.854;18.542;2022-09-27T06:05:38;13.50;;;5.43;;
46042;SDS011;32533;-33.854;18.542;2022-09-27T06:08:06;14.40;;;6.07;;
46042;SDS011;32533;-33.854;18.542;2022-09-27T06:10:36;18.73;;;7.43;;
46042;SDS011;32533;-33.854;18.542;2022-09-27T06:13:05;16.50;;;6.43;;
46042;SDS011;32533;-33.854;18.542;2022-09-27T06:15:33;10.73;;;4.80;;
46042;SDS011;32533;-33.854;18.542;2022-09-27T06:18:03;13.43;;;6.82;;
46042;SDS011;32533;-33.854;18.542;2022-09-27T06:20:31;19.42;;;7.35;;
46042;SDS011;32533;-33.854;18.542;2022-09-27T06:23:19;17.70;;;6.43;;
46042;SDS011;32533;-33.854;18.542;2022-09-27T06:25:46;12.20;;;6.50;;
46042;SDS011;32533;-33.854;18.542;2022-09-27T06:28:14;16.25;;;5.32;;
46042;SDS011;32533;-33.854;18.542;2022-09-27T06:30:45;16.40;;;5.45;;
46042;SDS011;32533;-33.854;18.542;2022-09-27T06:33:14;21.17;;;7.15;;
46042;SDS011;32533;-33.854;18.542;2022-09-27T06:35:42;19.02;;;5.38;;
46042;SDS011;32533;-33.854;18.542;2022-09-27T06:38:10;16.15;;;3.90;;
46042;SDS011;32533;-33.854;18.542;2022-09-27T06:40:40;11.20;;;4.20;;
46042;SDS011;32533;-33.854;18.542;2022-09-27T06:43:18;6.00;;;3.08;;
46042;SDS011;32533;-33.854;18.542;2022-09-27T06:45:45;10.75;;;2.65;;
46042;SDS011;32533;-33.854;18.542;2022-09-27T06:48:12;9.40;;;2.70;;
46042;SDS011;32533;-33.854;18.542;2022-09-27T06:50:41;6.53;;;2.75;;
46042;SDS011;32533;-33.854;18.542;2022-09-27T06:53:10;4.40;;;1.80;;
46042;SDS011;32533;-33.854;18.542;2022-09-27T06:55:37;5.18;;;2.10;;
46042;SDS011;32533;-33.854;18.542;2022-09-27T06:58:04;5.13;;;1.20;;
46042;SDS011;32533;-33.854;18.542;2022-09-27T07:00:50;8.35;;;2.08;;
46042;SDS011;32533;-33.854;18.542;2022-09-27T07:03:18;9.90;;;1.50;;
46042;SDS011;32533;-33.854;18.542;2022-09-27T07:05:57;4.97;;;1.10;;
46042;SDS011;32533;-33.854;18.542;2022-09-27T07:08:25;7.18;;;2.15;;
46042;SDS011;32533;-33.854;18.542;2022-09-27T07:10:53;6.85;;;2.33;;
46042;SDS011;32533;-33.854;18.542;2022-09-27T07:13:21;3.05;;;1.50;;
46042;SDS011;32533;-33.854;18.542;2022-09-27T07:15:48;7.75;;;1.42;;
46042;SDS011;32533;-33.854;18.542;2022-09-27T07:18:14;3.80;;;1.52;;
46042;SDS011;32533;-33.854;18.542;2022-09-27T07:20:41;4.15;;;0.90;;
46042;SDS011;32533;-33.854;18.542;2022-09-27T07:23:08;5.00;;;1.13;;
46042;SDS011;32533;-33.854;18.542;2022-09-27T07:25:36;5.07;;;1.23;;
46042;SDS011;32533;-33.854;18.542;2022-09-27T07:28:03;5.43;;;1.40;;
46042;SDS011;32533;-33.854;18.542;2022-09-27T07:30:32;6.97;;;1.02;;
46042;SDS011;32533;-33.854;18.542;2022-09-27T07:33:00;2.13;;;1.30;;
46042;SDS011;32533;-33.854;18.542;2022-09-27T07:35:28;6.95;;;1.38;;
46042;SDS011;32533;-33.854;18.542;2022-09-27T07:37:55;4.05;;;1.25;;
46042;SDS011;32533;-33.854;18.542;2022-09-27T07:40:22;7.80;;;1.45;;
46042;SDS011;32533;-33.854;18.542;2022-09-27T07:42:53;9.18;;;2.40;;
46042;SDS011;32533;-33.854;18.542;2022-09-27T07:45:23;9.05;;;2.10;;
46042;SDS011;32533;-33.854;18.542;2022-09-27T07:47:51;11.52;;;3.63;;
46042;SDS011;32533;-33.854;18.542;2022-09-27T07:50:18;10.18;;;2.30;;
46042;SDS011;32533;-33.854;18.542;2022-09-27T07:52:46;5.95;;;1.75;;
46042;SDS011;32533;-33.854;18.542;2022-09-27T07:55:15;2.90;;;1.20;;
46042;SDS011;32533;-33.854;18.542;2022-09-27T07:57:43;9.23;;;1.30;;
46042;SDS011;32533;-33.854;18.542;2022-09-27T08:00:14;2.67;;;1.40;;
46042;SDS011;32533;-33.854;18.542;2022-09-27T08:02:44;23.38;;;2.85;;
46042;SDS011;32533;-33.854;18.542;2022-09-27T08:05:11;8.23;;;1.85;;
46042;SDS011;32533;-33.854;18.542;2022-09-27T08:07:38;4.63;;;1.52;;
46042;SDS011;32533;-33.854;18.542;2022-09-27T08:10:06;2.72;;;1.20;;
46042;SDS011;32533;-33.854;18.542;2022-09-27T08:12:33;3.75;;;1.30;;
46042;SDS011;32533;-33.854;18.542;2022-09-27T08:15:00;0.98;;;0.70;;
46042;SDS011;32533;-33.854;18.542;2022-09-27T08:17:29;3.40;;;0.95;;
46042;SDS011;32533;-33.854;18.542;2022-09-27T08:19:56;4.30;;;1.08;;
46042;SDS011;32533;-33.854;18.542;2022-09-27T08:22:23;5.90;;;1.73;;
46042;SDS011;32533;-33.854;18.542;2022-09-27T08:24:49;2.95;;;1.50;;
46042;SDS011;32533;-33.854;18.542;2022-09-27T08:27:16;3.45;;;1.08;;
46042;SDS011;32533;-33.854;18.542;2022-09-27T08:29:42;1.70;;;0.95;;
46042;SDS011;32533;-33.854;18.542;2022-09-27T08:32:12;7.40;;;2.35;;
46042;SDS011;32533;-33.854;18.542;2022-09-27T08:34:39;1.20;;;1.00;;
46042;SDS011;32533;-33.854;18.542;2022-09-27T08:37:06;2.22;;;0.98;;
46042;SDS011;32533;-33.854;18.542;2022-09-27T08:39:32;3.83;;;0.88;;
46042;SDS011;32533;-33.854;18.542;2022-09-27T08:45:00;3.47;;;1.20;;
46042;SDS011;32533;-33.854;18.542;2022-09-27T08:47:37;3.60;;;1.13;;
46042;SDS011;32533;-33.854;18.542;2022-09-27T08:52:40;8.60;;;1.65;;
46042;SDS011;32533;-33.854;18.542;2022-09-27T08:55:20;4.57;;;1.67;;
46042;SDS011;32533;-33.854;18.542;2022-09-27T08:57:56;3.35;;;1.45;;
46042;SDS011;32533;-33.854;18.542;2022-09-27T09:00:24;2.83;;;1.20;;
46042;SDS011;32533;-33.854;18.542;2022-09-27T09:02:54;10.75;;;1.73;;
46042;SDS011;32533;-33.854;18.542;2022-09-27T09:05:32;9.48;;;2.25;;
46042;SDS011;32533;-33.854;18.542;2022-09-27T09:10:53;3.63;;;1.08;;
46042;SDS011;32533;-33.854;18.542;2022-09-27T09:14:07;4.20;;;1.00;;
46042;SDS011;32533;-33.854;18.542;2022-09-27T09:20:06;3.00;;;0.95;;
46042;SDS011;32533;-33.854;18.542;2022-09-27T09:26:13;1.08;;;0.70;;
46042;SDS011;32533;-33.854;18.542;2022-09-27T09:34:25;5.07;;;0.98;;
46042;SDS011;32533;-33.854;18.542;2022-09-27T09:37:01;2.05;;;0.93;;
46042;SDS011;32533;-33.854;18.542;2022-09-27T09:39:42;13.18;;;1.33;;
46042;SDS011;32533;-33.854;18.542;2022-09-27T09:48:03;14.80;;;2.78;;
46042;SDS011;32533;-33.854;18.542;2022-09-27T09:50:47;3.47;;;1.08;;
46042;SDS011;32533;-33.854;18.542;2022-09-27T09:53:17;4.82;;;1.25;;
46042;SDS011;32533;-33.854;18.542;2022-09-27T09:56:07;4.30;;;1.15;;
46042;SDS011;32533;-33.854;18.542;2022-09-27T09:59:00;4.70;;;0.98;;
46042;SDS011;32533;-33.854;18.542;2022-09-27T10:01:35;3.78;;;0.90;;
46042;SDS011;32533;-33.854;18.542;2022-09-27T10:04:10;2.05;;;0.80;;
46042;SDS011;32533;-33.854;18.542;2022-09-27T10:06:48;12.07;;;1.70;;
46042;SDS011;32533;-33.854;18.542;2022-09-27T10:09:16;7.93;;;1.65;;
46042;SDS011;32533;-33.854;18.542;2022-09-27T10:11:48;3.95;;;0.90;;
46042;SDS011;32533;-33.854;18.542;2022-09-27T10:14:16;3.95;;;1.27;;
46042;SDS011;32533;-33.854;18.542;2022-09-27T10:16:45;6.75;;;1.10;;
46042;SDS011;32533;-33.854;18.542;2022-09-27T10:19:20;9.55;;;1.13;;
46042;SDS011;32533;-33.854;18.542;2022-09-27T10:21:53;6.93;;;1.58;;
46042;SDS011;32533;-33.854;18.542;2022-09-27T10:24:28;4.10;;;1.13;;
46042;SDS011;32533;-33.854;18.542;2022-09-27T10:26:58;2.90;;;1.83;;
46042;SDS011;32533;-33.854;18.542;2022-09-27T10:29:30;2.92;;;1.17;;
46042;SDS011;32533;-33.854;18.542;2022-09-27T10:31:58;2.30;;;0.95;;
46042;SDS011;32533;-33.854;18.542;2022-09-27T10:34:34;5.82;;;0.98;;
46042;SDS011;32533;-33.854;18.542;2022-09-27T10:39:35;4.80;;;0.90;;
46042;SDS011;32533;-33.854;18.542;2022-09-27T10:42:48;9.30;;;1.20;;
46042;SDS011;32533;-33.854;18.542;2022-09-27T10:44:56;3.25;;;1.00;;
46042;SDS011;32533;-33.854;18.542;2022-09-27T10:47:23;5.55;;;1.40;;
46042;SDS011;32533;-33.854;18.542;2022-09-27T10:49:51;4.40;;;0.90;;
46042;SDS011;32533;-33.854;18.542;2022-09-27T10:52:29;6.13;;;0.88;;
46042;SDS011;32533;-33.854;18.542;2022-09-27T10:54:56;1.85;;;1.27;;
46042;SDS011;32533;-33.854;18.542;2022-09-27T10:57:29;6.72;;;1.30;;
46042;SDS011;32533;-33.854;18.542;2022-09-27T11:05:03;2.22;;;0.80;;
46042;SDS011;32533;-33.854;18.542;2022-09-27T11:07:30;2.85;;;0.70;;
46042;SDS011;32533;-33.854;18.542;2022-09-27T11:09:57;4.22;;;0.90;;
46042;SDS011;32533;-33.854;18.542;2022-09-27T11:12:27;5.35;;;1.42;;
46042;SDS011;32533;-33.854;18.542;2022-09-27T11:14:56;4.00;;;0.98;;
46042;SDS011;32533;-33.854;18.542;2022-09-27T11:17:32;3.33;;;0.88;;
46042;SDS011;32533;-33.854;18.542;2022-09-27T11:36:50;1.58;;;0.88;;
46042;SDS011;32533;-33.854;18.542;2022-09-27T11:45:19;3.28;;;0.93;;
46042;SDS011;32533;-33.854;18.542;2022-09-27T11:56:10;3.35;;;1.05;;
46042;SDS011;32533;-33.854;18.542;2022-09-27T11:58:53;1.00;;;0.55;;
46042;SDS011;32533;-33.854;18.542;2022-09-27T14:15:16;3.85;;;1.00;;
46042;SDS011;32533;-33.854;18.542;2022-09-27T14:17:47;4.47;;;1.60;;
46042;SDS011;32533;-33.854;18.542;2022-09-27T14:20:33;4.70;;;3.53;;
46042;SDS011;32533;-33.854;18.542;2022-09-27T14:23:04;4.82;;;1.17;;
46042;SDS011;32533;-33.854;18.542;2022-09-27T14:25:31;5.22;;;2.20;;
46042;SDS011;32533;-33.854;18.542;2022-09-27T14:27:57;2.55;;;1.10;;
46042;SDS011;32533;-33.854;18.542;2022-09-27T14:30:25;4.20;;;1.08;;
46042;SDS011;32533;-33.854;18.542;2022-09-27T14:32:54;3.08;;;1.23;;
46042;SDS011;32533;-33.854;18.542;2022-09-27T14:35:29;4.65;;;1.20;;
46042;SDS011;32533;-33.854;18.542;2022-09-27T14:38:15;10.05;;;1.27;;
46042;SDS011;32533;-33.854;18.542;2022-09-27T14:41:03;9.88;;;2.65;;
46042;SDS011;32533;-33.854;18.542;2022-09-27T14:43:34;3.03;;;0.98;;
46042;SDS011;32533;-33.854;18.542;2022-09-27T14:46:06;4.05;;;1.83;;
46042;SDS011;32533;-33.854;18.542;2022-09-27T14:48:48;12.15;;;1.88;;
46042;SDS011;32533;-33.854;18.542;2022-09-27T14:51:19;6.07;;;1.92;;
46042;SDS011;32533;-33.854;18.542;2022-09-27T14:53:57;5.15;;;2.22;;
46042;SDS011;32533;-33.854;18.542;2022-09-27T14:56:26;13.20;;;7.05;;
46042;SDS011;32533;-33.854;18.542;2022-09-27T14:59:00;5.60;;;3.15;;
46042;SDS011;32533;-33.854;18.542;2022-09-27T15:01:49;8.18;;;2.08;;
46042;SDS011;32533;-33.854;18.542;2022-09-27T15:04:17;12.23;;;2.35;;
46042;SDS011;32533;-33.854;18.542;2022-09-27T15:06:46;6.63;;;2.65;;
46042;SDS011;32533;-33.854;18.542;2022-09-27T15:09:14;15.90;;;1.35;;
46042;SDS011;32533;-33.854;18.542;2022-09-27T15:11:42;5.45;;;2.00;;
46042;SDS011;32533;-33.854;18.542;2022-09-27T15:14:14;13.02;;;2.97;;
46042;SDS011;32533;-33.854;18.542;2022-09-27T15:16:49;13.75;;;2.70;;
46042;SDS011;32533;-33.854;18.542;2022-09-27T15:21:51;2.93;;;1.60;;
46042;SDS011;32533;-33.854;18.542;2022-09-27T15:24:37;8.02;;;1.83;;
46042;SDS011;32533;-33.854;18.542;2022-09-27T15:27:18;2.60;;;0.98;;
46042;SDS011;32533;-33.854;18.542;2022-09-27T15:29:48;3.53;;;1.63;;
46042;SDS011;32533;-33.854;18.542;2022-09-27T15:32:16;3.90;;;1.67;;
46042;SDS011;32533;-33.854;18.542;2022-09-27T15:34:45;5.15;;;1.63;;
46042;SDS011;32533;-33.854;18.542;2022-09-27T15:42:59;4.95;;;1.35;;
46042;SDS011;32533;-33.854;18.542;2022-09-27T15:48:12;5.22;;;1.90;;
46042;SDS011;32533;-33.854;18.542;2022-09-27T15:50:41;6.68;;;2.67;;
46042;SDS011;32533;-33.854;18.542;2022-09-27T15:53:08;7.70;;;3.42;;
46042;SDS011;32533;-33.854;18.542;2022-09-27T15:55:41;5.38;;;1.58;;
46042;SDS011;32533;-33.854;18.542;2022-09-27T15:58:18;7.03;;;1.40;;
46042;SDS011;32533;-33.854;18.542;2022-09-27T16:00:56;4.88;;;1.50;;
46042;SDS011;32533;-33.854;18.542;2022-09-27T16:03:24;3.78;;;1.38;;
46042;SDS011;32533;-33.854;18.542;2022-09-27T16:05:52;4.55;;;1.45;;
46042;SDS011;32533;-33.854;18.542;2022-09-27T16:08:22;7.38;;;1.40;;
46042;SDS011;32533;-33.854;18.542;2022-09-27T16:10:56;8.10;;;1.38;;
46042;SDS011;32533;-33.854;18.542;2022-09-27T16:13:25;3.65;;;1.35;;
46042;SDS011;32533;-33.854;18.542;2022-09-27T16:15:52;3.92;;;1.25;;
46042;SDS011;32533;-33.854;18.542;2022-09-27T16:18:18;2.75;;;1.55;;
46042;SDS011;32533;-33.854;18.542;2022-09-27T16:20:45;11.23;;;1.70;;
46042;SDS011;32533;-33.854;18.542;2022-09-27T16:23:11;14.38;;;3.28;;
46042;SDS011;32533;-33.854;18.542;2022-09-27T16:25:38;14.93;;;2.67;;
46042;SDS011;32533;-33.854;18.542;2022-09-27T16:28:04;10.73;;;3.25;;
46042;SDS011;32533;-33.854;18.542;2022-09-27T16:30:32;8.32;;;2.22;;
46042;SDS011;32533;-33.854;18.542;2022-09-27T16:33:38;10.43;;;1.70;;
46042;SDS011;32533;-33.854;18.542;2022-09-27T16:36:44;8.27;;;1.20;;
46042;SDS011;32533;-33.854;18.542;2022-09-27T16:45:23;12.82;;;10.95;;
46042;SDS011;32533;-33.854;18.542;2022-09-27T16:48:30;11.00;;;4.43;;
46042;SDS011;32533;-33.854;18.542;2022-09-27T16:51:56;12.90;;;4.25;;
46042;SDS011;32533;-33.854;18.542;2022-09-27T16:55:02;7.05;;;5.18;;
46042;SDS011;32533;-33.854;18.542;2022-09-27T16:58:08;10.23;;;3.35;;
46042;SDS011;32533;-33.854;18.542;2022-09-27T17:01:14;5.85;;;3.35;;
46042;SDS011;32533;-33.854;18.542;2022-09-27T17:04:22;7.13;;;3.83;;
46042;SDS011;32533;-33.854;18.542;2022-09-27T17:07:27;6.47;;;3.60;;
46042;SDS011;32533;-33.854;18.542;2022-09-27T17:10:33;4.40;;;2.55;;
46042;SDS011;32533;-33.854;18.542;2022-09-27T17:13:40;5.93;;;2.70;;
46042;SDS011;32533;-33.854;18.542;2022-09-27T17:16:47;6.10;;;2.58;;
46042;SDS011;32533;-33.854;18.542;2022-09-27T17:19:52;3.47;;;1.80;;
46042;SDS011;32533;-33.854;18.542;2022-09-27T17:22:58;6.95;;;2.47;;
46042;SDS011;32533;-33.854;18.542;2022-09-27T17:26:05;7.78;;;2.65;;
46042;SDS011;32533;-33.854;18.542;2022-09-27T17:29:11;5.35;;;1.27;;
46042;SDS011;32533;-33.854;18.542;2022-09-27T17:32:16;5.55;;;1.75;;
46042;SDS011;32533;-33.854;18.542;2022-09-27T17:35:22;6.82;;;2.10;;
46042;SDS011;32533;-33.854;18.542;2022-09-27T17:38:30;3.15;;;1.63;;
46042;SDS011;32533;-33.854;18.542;2022-09-27T17:41:36;2.85;;;1.40;;
46042;SDS011;32533;-33.854;18.542;2022-09-27T17:44:21;3.92;;;2.05;;
46042;SDS011;32533;-33.854;18.542;2022-09-27T17:46:48;4.05;;;2.30;;
46042;SDS011;32533;-33.854;18.542;2022-09-27T17:49:34;6.70;;;2.75;;
46042;SDS011;32533;-33.854;18.542;2022-09-27T17:52:19;9.63;;;3.20;;
46042;SDS011;32533;-33.854;18.542;2022-09-27T17:54:46;5.10;;;2.10;;
46042;SDS011;32533;-33.854;18.542;2022-09-27T17:57:12;4.20;;;1.98;;
46042;SDS011;32533;-33.854;18.542;2022-09-27T17:59:38;24.38;;;3.53;;
46042;SDS011;32533;-33.854;18.542;2022-09-27T18:02:06;6.43;;;1.85;;
46042;SDS011;32533;-33.854;18.542;2022-09-27T18:04:32;8.40;;;2.17;;
46042;SDS011;32533;-33.854;18.542;2022-09-27T18:07:00;19.40;;;4.85;;
46042;SDS011;32533;-33.854;18.542;2022-09-27T18:09:46;6.90;;;2.83;;
46042;SDS011;32533;-33.854;18.542;2022-09-27T18:12:14;13.20;;;3.33;;
46042;SDS011;32533;-33.854;18.542;2022-09-27T18:14:49;16.30;;;4.65;;
46042;SDS011;32533;-33.854;18.542;2022-09-27T18:17:25;15.80;;;5.18;;
46042;SDS011;32533;-33.854;18.542;2022-09-27T18:19:57;6.60;;;3.03;;
46042;SDS011;32533;-33.854;18.542;2022-09-27T18:25:34;11.63;;;2.67;;
46042;SDS011;32533;-33.854;18.542;2022-09-27T18:28:04;5.63;;;2.45;;
46042;SDS011;32533;-33.854;18.542;2022-09-27T18:30:32;9.27;;;2.38;;
46042;SDS011;32533;-33.854;18.542;2022-09-27T18:33:38;3.90;;;2.10;;
46042;SDS011;32533;-33.854;18.542;2022-09-27T18:36:10;8.73;;;3.25;;
46042;SDS011;32533;-33.854;18.542;2022-09-27T18:38:39;7.85;;;4.00;;
46042;SDS011;32533;-33.854;18.542;2022-09-27T18:41:06;8.02;;;2.95;;
46042;SDS011;32533;-33.854;18.542;2022-09-27T18:43:38;9.23;;;3.05;;
46042;SDS011;32533;-33.854;18.542;2022-09-27T18:46:07;11.43;;;3.20;;
46042;SDS011;32533;-33.854;18.542;2022-09-27T18:49:18;11.88;;;3.40;;
46042;SDS011;32533;-33.854;18.542;2022-09-27T18:51:45;14.15;;;5.13;;
46042;SDS011;32533;-33.854;18.542;2022-09-27T18:54:14;9.93;;;5.70;;
46042;SDS011;32533;-33.854;18.542;2022-09-27T18:56:43;9.55;;;5.50;;
46042;SDS011;32533;-33.854;18.542;2022-09-27T18:59:11;11.15;;;5.45;;
46042;SDS011;32533;-33.854;18.542;2022-09-27T19:01:38;9.10;;;4.63;;
46042;SDS011;32533;-33.854;18.542;2022-09-27T19:04:10;9.75;;;3.20;;
46042;SDS011;32533;-33.854;18.542;2022-09-27T19:06:38;6.57;;;4.30;;
46042;SDS011;32533;-33.854;18.542;2022-09-27T19:09:06;8.75;;;2.42;;
46042;SDS011;32533;-33.854;18.542;2022-09-27T19:11:35;10.48;;;3.13;;
46042;SDS011;32533;-33.854;18.542;2022-09-27T19:14:01;6.20;;;3.13;;
46042;SDS011;32533;-33.854;18.542;2022-09-27T19:16:28;6.53;;;2.70;;